sensor_id;sensor_type;location;lat;lon;timestamp;P1;durP1;ratioP1;P2;durP2;ratioP2
5460;SDS011;2753;49.196;8.286;2023-02-19T00:01:29;4.33;;;3.93;;
5460;SDS011;2753;49.196;8.286;2023-02-19T00:04:00;5.33;;;4.00;;
5460;SDS011;2753;49.196;8.286;2023-02-19T00:06:28;4.50;;;4.20;;
5460;SDS011;2753;49.196;8.286;2023-02-19T00:08:55;3.33;;;3.13;;
5460;SDS011;2753;49.196;8.286;2023-02-19T00:11:22;3.77;;;3.47;;
5460;SDS011;2753;49.196;8.286;2023-02-19T00:13:51;4.23;;;3.50;;
5460;SDS011;2753;49.196;8.286;2023-02-19T00:16:23;3.40;;;3.20;;
5460;SDS011;2753;49.196;8.286;2023-02-19T00:18:50;3.90;;;3.43;;
5460;SDS011;2753;49.196;8.286;2023-02-19T00:21:17;3.73;;;3.33;;
5460;SDS011;2753;49.196;8.286;2023-02-19T00:23:47;5.30;;;3.53;;
5460;SDS011;2753;49.196;8.286;2023-02-19T00:26:14;2.67;;;2.57;;
5460;SDS011;2753;49.196;8.286;2023-02-19T00:28:39;4.47;;;3.10;;
5460;SDS011;2753;49.196;8.286;2023-02-19T00:31:06;3.67;;;3.30;;
5460;SDS011;2753;49.196;8.286;2023-02-19T00:33:42;2.80;;;2.67;;
5460;SDS011;2753;49.196;8.286;2023-02-19T00:36:09;2.77;;;2.50;;
5460;SDS011;2753;49.196;8.286;2023-02-19T00:38:35;2.60;;;2.50;;
5460;SDS011;2753;49.196;8.286;2023-02-19T00:41:02;2.67;;;2.57;;
5460;SDS011;2753;49.196;8.286;2023-02-19T00:46:17;3.77;;;3.13;;
5460;SDS011;2753;49.196;8.286;2023-02-19T00:48:48;3.90;;;2.67;;
5460;SDS011;2753;49.196;8.286;2023-02-19T00:51:14;3.67;;;2.60;;
5460;SDS011;2753;49.196;8.286;2023-02-19T00:53:40;3.77;;;2.93;;
5460;SDS011;2753;49.196;8.286;2023-02-19T00:56:07;3.10;;;2.50;;
5460;SDS011;2753;49.196;8.286;2023-02-19T00:58:33;2.47;;;2.27;;
5460;SDS011;2753;49.196;8.286;2023-02-19T01:00:59;2.37;;;2.27;;
5460;SDS011;2753;49.196;8.286;2023-02-19T01:03:25;3.67;;;2.17;;
5460;SDS011;2753;49.196;8.286;2023-02-19T01:05:51;4.03;;;2.63;;
5460;SDS011;2753;49.196;8.286;2023-02-19T01:08:17;6.70;;;2.67;;
5460;SDS011;2753;49.196;8.286;2023-02-19T01:10:43;2.73;;;2.53;;
5460;SDS011;2753;49.196;8.286;2023-02-19T01:13:09;2.70;;;2.07;;
5460;SDS011;2753;49.196;8.286;2023-02-19T01:15:35;2.70;;;2.30;;
5460;SDS011;2753;49.196;8.286;2023-02-19T01:18:01;1.40;;;1.30;;
5460;SDS011;2753;49.196;8.286;2023-02-19T01:20:26;2.00;;;1.90;;
5460;SDS011;2753;49.196;8.286;2023-02-19T01:22:52;2.83;;;1.90;;
5460;SDS011;2753;49.196;8.286;2023-02-19T01:25:18;1.20;;;1.20;;
5460;SDS011;2753;49.196;8.286;2023-02-19T01:27:44;1.50;;;1.40;;
5460;SDS011;2753;49.196;8.286;2023-02-19T01:30:10;2.03;;;1.83;;
5460;SDS011;2753;49.196;8.286;2023-02-19T01:32:36;2.03;;;1.57;;
5460;SDS011;2753;49.196;8.286;2023-02-19T01:35:01;1.87;;;1.73;;
5460;SDS011;2753;49.196;8.286;2023-02-19T01:37:27;3.20;;;2.20;;
5460;SDS011;2753;49.196;8.286;2023-02-19T01:39:53;1.17;;;1.17;;
5460;SDS011;2753;49.196;8.286;2023-02-19T01:42:18;1.03;;;1.00;;
5460;SDS011;2753;49.196;8.286;2023-02-19T01:47:10;0.93;;;0.90;;
5460;SDS011;2753;49.196;8.286;2023-02-19T01:49:46;1.20;;;1.10;;
5460;SDS011;2753;49.196;8.286;2023-02-19T01:52:29;0.90;;;0.90;;
5460;SDS011;2753;49.196;8.286;2023-02-19T01:54:59;1.23;;;1.23;;
5460;SDS011;2753;49.196;8.286;2023-02-19T01:57:29;1.37;;;1.37;;
5460;SDS011;2753;49.196;8.286;2023-02-19T02:00:04;1.40;;;1.30;;
5460;SDS011;2753;49.196;8.286;2023-02-19T02:02:33;2.33;;;1.40;;
5460;SDS011;2753;49.196;8.286;2023-02-19T02:04:59;1.47;;;1.43;;
5460;SDS011;2753;49.196;8.286;2023-02-19T02:07:26;1.70;;;1.60;;
5460;SDS011;2753;49.196;8.286;2023-02-19T02:10:10;1.40;;;1.30;;
5460;SDS011;2753;49.196;8.286;2023-02-19T02:12:48;1.83;;;1.73;;
5460;SDS011;2753;49.196;8.286;2023-02-19T02:15:21;1.73;;;1.67;;
5460;SDS011;2753;49.196;8.286;2023-02-19T02:20:31;1.70;;;1.60;;
5460;SDS011;2753;49.196;8.286;2023-02-19T02:31:16;2.37;;;2.27;;
5460;SDS011;2753;49.196;8.286;2023-02-19T02:33:52;2.03;;;1.80;;
5460;SDS011;2753;49.196;8.286;2023-02-19T02:36:28;2.03;;;1.93;;
5460;SDS011;2753;49.196;8.286;2023-02-19T02:38:59;2.20;;;2.10;;
5460;SDS011;2753;49.196;8.286;2023-02-19T02:41:29;2.00;;;1.90;;
5460;SDS011;2753;49.196;8.286;2023-02-19T02:43:56;1.97;;;1.87;;
5460;SDS011;2753;49.196;8.286;2023-02-19T02:46:23;2.07;;;1.97;;
5460;SDS011;2753;49.196;8.286;2023-02-19T02:48:55;2.23;;;2.13;;
5460;SDS011;2753;49.196;8.286;2023-02-19T02:51:35;2.60;;;2.50;;
5460;SDS011;2753;49.196;8.286;2023-02-19T02:56:52;2.47;;;2.30;;
5460;SDS011;2753;49.196;8.286;2023-02-19T02:59:24;2.80;;;2.70;;
5460;SDS011;2753;49.196;8.286;2023-02-19T03:02:09;2.67;;;2.57;;
5460;SDS011;2753;49.196;8.286;2023-02-19T03:07:52;3.80;;;3.40;;
5460;SDS011;2753;49.196;8.286;2023-02-19T03:10:22;2.83;;;2.63;;
5460;SDS011;2753;49.196;8.286;2023-02-19T03:13:02;2.90;;;2.80;;
5460;SDS011;2753;49.196;8.286;2023-02-19T03:15:52;2.43;;;2.30;;
5460;SDS011;2753;49.196;8.286;2023-02-19T03:18:41;2.97;;;2.77;;
5460;SDS011;2753;49.196;8.286;2023-02-19T03:21:28;4.00;;;3.13;;
5460;SDS011;2753;49.196;8.286;2023-02-19T03:23:59;3.03;;;2.83;;
5460;SDS011;2753;49.196;8.286;2023-02-19T03:26:44;3.13;;;2.93;;
5460;SDS011;2753;49.196;8.286;2023-02-19T03:29:17;5.90;;;3.13;;
5460;SDS011;2753;49.196;8.286;2023-02-19T03:31:51;3.30;;;3.00;;
5460;SDS011;2753;49.196;8.286;2023-02-19T03:34:34;3.20;;;3.10;;
5460;SDS011;2753;49.196;8.286;2023-02-19T03:39:54;3.40;;;3.20;;
5460;SDS011;2753;49.196;8.286;2023-02-19T03:53:46;2.90;;;2.70;;
5460;SDS011;2753;49.196;8.286;2023-02-19T04:01:25;2.90;;;2.70;;
5460;SDS011;2753;49.196;8.286;2023-02-19T04:04:06;5.13;;;2.63;;
5460;SDS011;2753;49.196;8.286;2023-02-19T04:06:39;3.00;;;2.80;;
5460;SDS011;2753;49.196;8.286;2023-02-19T04:09:08;3.47;;;3.17;;
5460;SDS011;2753;49.196;8.286;2023-02-19T04:11:36;2.83;;;2.63;;
5460;SDS011;2753;49.196;8.286;2023-02-19T04:14:08;3.60;;;3.30;;
5460;SDS011;2753;49.196;8.286;2023-02-19T04:16:38;3.83;;;3.33;;
5460;SDS011;2753;49.196;8.286;2023-02-19T04:19:10;3.27;;;3.07;;
5460;SDS011;2753;49.196;8.286;2023-02-19T04:21:38;5.00;;;3.20;;
5460;SDS011;2753;49.196;8.286;2023-02-19T04:24:07;2.90;;;2.70;;
5460;SDS011;2753;49.196;8.286;2023-02-19T04:26:37;2.67;;;2.50;;
5460;SDS011;2753;49.196;8.286;2023-02-19T04:29:04;3.13;;;2.97;;
5460;SDS011;2753;49.196;8.286;2023-02-19T04:31:30;3.03;;;2.83;;
5460;SDS011;2753;49.196;8.286;2023-02-19T04:34:00;3.70;;;2.63;;
5460;SDS011;2753;49.196;8.286;2023-02-19T04:36:27;3.50;;;3.23;;
5460;SDS011;2753;49.196;8.286;2023-02-19T04:38:53;4.03;;;3.73;;
5460;SDS011;2753;49.196;8.286;2023-02-19T04:41:19;2.97;;;2.80;;
5460;SDS011;2753;49.196;8.286;2023-02-19T04:43:45;3.37;;;3.13;;
5460;SDS011;2753;49.196;8.286;2023-02-19T04:46:10;3.20;;;3.00;;
5460;SDS011;2753;49.196;8.286;2023-02-19T04:48:36;3.70;;;3.03;;
5460;SDS011;2753;49.196;8.286;2023-02-19T04:51:05;2.80;;;2.60;;
5460;SDS011;2753;49.196;8.286;2023-02-19T04:53:31;3.77;;;3.47;;
5460;SDS011;2753;49.196;8.286;2023-02-19T04:56:03;2.83;;;2.73;;
5460;SDS011;2753;49.196;8.286;2023-02-19T04:58:30;3.20;;;2.93;;
5460;SDS011;2753;49.196;8.286;2023-02-19T05:00:56;3.30;;;3.10;;
5460;SDS011;2753;49.196;8.286;2023-02-19T05:03:22;3.37;;;3.07;;
5460;SDS011;2753;49.196;8.286;2023-02-19T05:05:47;3.30;;;2.40;;
5460;SDS011;2753;49.196;8.286;2023-02-19T05:08:13;3.20;;;3.00;;
5460;SDS011;2753;49.196;8.286;2023-02-19T05:10:39;3.03;;;2.83;;
5460;SDS011;2753;49.196;8.286;2023-02-19T05:13:04;3.70;;;3.50;;
5460;SDS011;2753;49.196;8.286;2023-02-19T05:15:30;2.87;;;2.77;;
5460;SDS011;2753;49.196;8.286;2023-02-19T05:17:56;2.97;;;2.77;;
5460;SDS011;2753;49.196;8.286;2023-02-19T05:20:21;3.63;;;3.07;;
5460;SDS011;2753;49.196;8.286;2023-02-19T05:22:47;2.73;;;2.53;;
5460;SDS011;2753;49.196;8.286;2023-02-19T05:25:12;2.70;;;2.50;;
5460;SDS011;2753;49.196;8.286;2023-02-19T05:27:38;3.80;;;3.50;;
5460;SDS011;2753;49.196;8.286;2023-02-19T05:30:04;2.90;;;2.70;;
5460;SDS011;2753;49.196;8.286;2023-02-19T05:32:30;2.80;;;2.70;;
5460;SDS011;2753;49.196;8.286;2023-02-19T05:34:56;2.87;;;2.67;;
5460;SDS011;2753;49.196;8.286;2023-02-19T05:37:21;6.00;;;3.93;;
5460;SDS011;2753;49.196;8.286;2023-02-19T05:39:47;3.20;;;3.00;;
5460;SDS011;2753;49.196;8.286;2023-02-19T05:42:13;2.50;;;2.40;;
5460;SDS011;2753;49.196;8.286;2023-02-19T05:44:40;2.63;;;2.50;;
5460;SDS011;2753;49.196;8.286;2023-02-19T05:47:06;3.30;;;3.00;;
5460;SDS011;2753;49.196;8.286;2023-02-19T05:49:31;3.87;;;3.10;;
5460;SDS011;2753;49.196;8.286;2023-02-19T05:51:57;3.07;;;2.87;;
5460;SDS011;2753;49.196;8.286;2023-02-19T05:54:23;3.47;;;2.63;;
5460;SDS011;2753;49.196;8.286;2023-02-19T05:56:48;4.27;;;3.03;;
5460;SDS011;2753;49.196;8.286;2023-02-19T05:59:21;3.10;;;2.80;;
5460;SDS011;2753;49.196;8.286;2023-02-19T06:01:49;8.03;;;2.90;;
5460;SDS011;2753;49.196;8.286;2023-02-19T06:04:16;3.23;;;2.93;;
5460;SDS011;2753;49.196;8.286;2023-02-19T06:06:43;2.70;;;2.57;;
5460;SDS011;2753;49.196;8.286;2023-02-19T06:09:10;3.30;;;3.10;;
5460;SDS011;2753;49.196;8.286;2023-02-19T06:11:36;3.50;;;3.20;;
5460;SDS011;2753;49.196;8.286;2023-02-19T06:14:03;2.50;;;2.40;;
5460;SDS011;2753;49.196;8.286;2023-02-19T06:16:29;3.47;;;2.90;;
5460;SDS011;2753;49.196;8.286;2023-02-19T06:18:57;3.90;;;3.10;;
5460;SDS011;2753;49.196;8.286;2023-02-19T06:21:23;3.30;;;3.10;;
5460;SDS011;2753;49.196;8.286;2023-02-19T06:23:48;5.30;;;3.50;;
5460;SDS011;2753;49.196;8.286;2023-02-19T06:26:15;4.70;;;3.70;;
5460;SDS011;2753;49.196;8.286;2023-02-19T06:28:42;4.57;;;3.60;;
5460;SDS011;2753;49.196;8.286;2023-02-19T06:31:08;6.00;;;4.47;;
5460;SDS011;2753;49.196;8.286;2023-02-19T06:33:34;4.13;;;3.83;;
5460;SDS011;2753;49.196;8.286;2023-02-19T06:36:02;4.17;;;3.87;;
5460;SDS011;2753;49.196;8.286;2023-02-19T06:38:29;4.00;;;3.70;;
5460;SDS011;2753;49.196;8.286;2023-02-19T06:40:59;4.30;;;4.00;;
5460;SDS011;2753;49.196;8.286;2023-02-19T06:43:29;4.73;;;4.23;;
5460;SDS011;2753;49.196;8.286;2023-02-19T06:45:56;5.37;;;3.63;;
5460;SDS011;2753;49.196;8.286;2023-02-19T06:48:24;4.67;;;4.13;;
5460;SDS011;2753;49.196;8.286;2023-02-19T06:50:51;4.70;;;4.30;;
5460;SDS011;2753;49.196;8.286;2023-02-19T06:53:16;4.93;;;4.43;;
5460;SDS011;2753;49.196;8.286;2023-02-19T06:55:42;5.73;;;4.60;;
5460;SDS011;2753;49.196;8.286;2023-02-19T06:58:07;5.33;;;4.17;;
5460;SDS011;2753;49.196;8.286;2023-02-19T07:00:33;5.00;;;4.50;;
5460;SDS011;2753;49.196;8.286;2023-02-19T07:02:59;7.90;;;4.40;;
5460;SDS011;2753;49.196;8.286;2023-02-19T07:05:25;4.20;;;3.83;;
5460;SDS011;2753;49.196;8.286;2023-02-19T07:07:51;4.20;;;3.80;;
5460;SDS011;2753;49.196;8.286;2023-02-19T07:10:16;4.37;;;3.97;;
5460;SDS011;2753;49.196;8.286;2023-02-19T07:12:42;4.17;;;3.80;;
5460;SDS011;2753;49.196;8.286;2023-02-19T07:15:08;4.63;;;4.17;;
5460;SDS011;2753;49.196;8.286;2023-02-19T07:17:34;5.87;;;4.80;;
5460;SDS011;2753;49.196;8.286;2023-02-19T07:19:59;7.43;;;4.97;;
5460;SDS011;2753;49.196;8.286;2023-02-19T07:22:25;4.77;;;3.93;;
5460;SDS011;2753;49.196;8.286;2023-02-19T07:24:51;4.53;;;4.17;;
5460;SDS011;2753;49.196;8.286;2023-02-19T07:27:16;11.30;;;3.70;;
5460;SDS011;2753;49.196;8.286;2023-02-19T07:29:42;6.90;;;4.93;;
5460;SDS011;2753;49.196;8.286;2023-02-19T07:32:08;3.93;;;3.63;;
5460;SDS011;2753;49.196;8.286;2023-02-19T07:34:33;4.80;;;4.10;;
5460;SDS011;2753;49.196;8.286;2023-02-19T07:36:59;6.50;;;4.00;;
5460;SDS011;2753;49.196;8.286;2023-02-19T07:39:25;4.00;;;3.60;;
5460;SDS011;2753;49.196;8.286;2023-02-19T07:41:50;3.80;;;3.50;;
5460;SDS011;2753;49.196;8.286;2023-02-19T07:44:16;4.20;;;3.37;;
5460;SDS011;2753;49.196;8.286;2023-02-19T07:46:42;3.60;;;3.30;;
5460;SDS011;2753;49.196;8.286;2023-02-19T07:49:08;4.30;;;3.90;;
5460;SDS011;2753;49.196;8.286;2023-02-19T07:51:34;27.77;;;3.67;;
5460;SDS011;2753;49.196;8.286;2023-02-19T07:53:59;3.63;;;3.33;;
5460;SDS011;2753;49.196;8.286;2023-02-19T07:56:25;3.20;;;3.00;;
5460;SDS011;2753;49.196;8.286;2023-02-19T07:58:52;3.93;;;3.10;;
5460;SDS011;2753;49.196;8.286;2023-02-19T08:01:19;5.80;;;4.27;;
5460;SDS011;2753;49.196;8.286;2023-02-19T08:04:09;5.67;;;4.43;;
5460;SDS011;2753;49.196;8.286;2023-02-19T08:06:36;6.17;;;4.10;;
5460;SDS011;2753;49.196;8.286;2023-02-19T08:09:03;5.17;;;4.53;;
5460;SDS011;2753;49.196;8.286;2023-02-19T08:11:29;3.80;;;3.50;;
5460;SDS011;2753;49.196;8.286;2023-02-19T08:14:13;5.20;;;4.53;;
5460;SDS011;2753;49.196;8.286;2023-02-19T08:16:39;4.80;;;4.30;;
5460;SDS011;2753;49.196;8.286;2023-02-19T08:19:11;6.07;;;4.40;;
5460;SDS011;2753;49.196;8.286;2023-02-19T08:21:37;6.30;;;5.47;;
5460;SDS011;2753;49.196;8.286;2023-02-19T08:24:04;5.40;;;3.70;;
5460;SDS011;2753;49.196;8.286;2023-02-19T08:26:29;4.43;;;4.03;;
5460;SDS011;2753;49.196;8.286;2023-02-19T08:28:57;4.80;;;3.80;;
5460;SDS011;2753;49.196;8.286;2023-02-19T08:31:23;6.30;;;4.10;;
5460;SDS011;2753;49.196;8.286;2023-02-19T08:33:49;4.43;;;4.13;;
5460;SDS011;2753;49.196;8.286;2023-02-19T08:36:14;5.90;;;4.17;;
5460;SDS011;2753;49.196;8.286;2023-02-19T08:38:40;4.40;;;4.00;;
5460;SDS011;2753;49.196;8.286;2023-02-19T08:41:06;4.53;;;4.20;;
5460;SDS011;2753;49.196;8.286;2023-02-19T08:43:33;4.20;;;3.80;;
5460;SDS011;2753;49.196;8.286;2023-02-19T08:45:59;7.23;;;3.80;;
5460;SDS011;2753;49.196;8.286;2023-02-19T08:48:25;5.73;;;4.20;;
5460;SDS011;2753;49.196;8.286;2023-02-19T08:50:52;5.90;;;5.30;;
5460;SDS011;2753;49.196;8.286;2023-02-19T08:53:22;8.80;;;4.80;;
5460;SDS011;2753;49.196;8.286;2023-02-19T08:55:48;11.23;;;7.83;;
5460;SDS011;2753;49.196;8.286;2023-02-19T08:58:14;7.97;;;5.67;;
5460;SDS011;2753;49.196;8.286;2023-02-19T09:00:40;7.40;;;4.93;;
5460;SDS011;2753;49.196;8.286;2023-02-19T09:03:05;7.90;;;4.13;;
5460;SDS011;2753;49.196;8.286;2023-02-19T09:05:31;7.20;;;4.80;;
5460;SDS011;2753;49.196;8.286;2023-02-19T09:07:57;5.13;;;4.40;;
5460;SDS011;2753;49.196;8.286;2023-02-19T09:10:22;5.10;;;4.40;;
5460;SDS011;2753;49.196;8.286;2023-02-19T09:12:48;4.23;;;3.90;;
5460;SDS011;2753;49.196;8.286;2023-02-19T09:15:13;8.37;;;3.97;;
5460;SDS011;2753;49.196;8.286;2023-02-19T09:17:39;5.00;;;3.40;;
5460;SDS011;2753;49.196;8.286;2023-02-19T09:20:05;5.53;;;3.53;;
5460;SDS011;2753;49.196;8.286;2023-02-19T09:22:31;6.10;;;3.53;;
5460;SDS011;2753;49.196;8.286;2023-02-19T09:24:57;6.57;;;4.30;;
5460;SDS011;2753;49.196;8.286;2023-02-19T09:27:22;7.33;;;3.70;;
5460;SDS011;2753;49.196;8.286;2023-02-19T09:29:48;9.83;;;4.27;;
5460;SDS011;2753;49.196;8.286;2023-02-19T09:32:13;3.47;;;3.17;;
5460;SDS011;2753;49.196;8.286;2023-02-19T09:34:39;4.10;;;3.10;;
5460;SDS011;2753;49.196;8.286;2023-02-19T09:37:05;5.00;;;4.03;;
5460;SDS011;2753;49.196;8.286;2023-02-19T09:39:31;3.93;;;3.43;;
5460;SDS011;2753;49.196;8.286;2023-02-19T09:41:57;3.37;;;3.07;;
5460;SDS011;2753;49.196;8.286;2023-02-19T09:46:56;5.60;;;3.57;;
5460;SDS011;2753;49.196;8.286;2023-02-19T09:49:34;13.10;;;3.63;;
5460;SDS011;2753;49.196;8.286;2023-02-19T09:52:18;7.70;;;3.40;;
5460;SDS011;2753;49.196;8.286;2023-02-19T09:54:58;4.03;;;3.63;;
5460;SDS011;2753;49.196;8.286;2023-02-19T09:57:28;7.70;;;4.17;;
5460;SDS011;2753;49.196;8.286;2023-02-19T09:59:58;7.30;;;3.93;;
5460;SDS011;2753;49.196;8.286;2023-02-19T10:02:31;5.50;;;3.80;;
5460;SDS011;2753;49.196;8.286;2023-02-19T10:04:57;4.17;;;3.43;;
5460;SDS011;2753;49.196;8.286;2023-02-19T10:07:24;7.43;;;3.90;;
5460;SDS011;2753;49.196;8.286;2023-02-19T10:10:01;37.37;;;15.17;;
5460;SDS011;2753;49.196;8.286;2023-02-19T10:12:51;18.50;;;9.17;;
5460;SDS011;2753;49.196;8.286;2023-02-19T10:15:22;4.67;;;3.60;;
5460;SDS011;2753;49.196;8.286;2023-02-19T10:17:52;4.07;;;3.80;;
5460;SDS011;2753;49.196;8.286;2023-02-19T10:20:19;8.27;;;3.67;;
5460;SDS011;2753;49.196;8.286;2023-02-19T10:22:48;6.67;;;3.20;;
5460;SDS011;2753;49.196;8.286;2023-02-19T10:25:23;10.23;;;6.10;;
5460;SDS011;2753;49.196;8.286;2023-02-19T10:27:48;11.33;;;3.77;;
5460;SDS011;2753;49.196;8.286;2023-02-19T10:30:17;8.60;;;4.37;;
5460;SDS011;2753;49.196;8.286;2023-02-19T10:32:57;8.33;;;4.80;;
5460;SDS011;2753;49.196;8.286;2023-02-19T10:35:25;6.20;;;4.40;;
5460;SDS011;2753;49.196;8.286;2023-02-19T10:37:51;9.10;;;5.90;;
5460;SDS011;2753;49.196;8.286;2023-02-19T10:42:48;5.83;;;3.90;;
5460;SDS011;2753;49.196;8.286;2023-02-19T10:45:32;7.80;;;3.97;;
5460;SDS011;2753;49.196;8.286;2023-02-19T10:48:19;6.80;;;3.90;;
5460;SDS011;2753;49.196;8.286;2023-02-19T10:51:12;5.60;;;3.97;;
5460;SDS011;2753;49.196;8.286;2023-02-19T10:53:45;8.53;;;5.07;;
5460;SDS011;2753;49.196;8.286;2023-02-19T10:58:52;9.60;;;4.27;;
5460;SDS011;2753;49.196;8.286;2023-02-19T11:01:20;6.63;;;4.47;;
5460;SDS011;2753;49.196;8.286;2023-02-19T11:03:47;8.33;;;4.70;;
5460;SDS011;2753;49.196;8.286;2023-02-19T11:06:36;6.80;;;4.50;;
5460;SDS011;2753;49.196;8.286;2023-02-19T11:09:02;7.13;;;5.33;;
5460;SDS011;2753;49.196;8.286;2023-02-19T11:14:00;14.10;;;6.80;;
5460;SDS011;2753;49.196;8.286;2023-02-19T11:16:56;11.53;;;6.20;;
5460;SDS011;2753;49.196;8.286;2023-02-19T11:19:26;13.33;;;4.90;;
5460;SDS011;2753;49.196;8.286;2023-02-19T11:21:59;9.60;;;3.53;;
5460;SDS011;2753;49.196;8.286;2023-02-19T11:24:27;3.83;;;2.80;;
5460;SDS011;2753;49.196;8.286;2023-02-19T11:26:59;9.90;;;4.50;;
5460;SDS011;2753;49.196;8.286;2023-02-19T11:29:27;5.70;;;3.33;;
5460;SDS011;2753;49.196;8.286;2023-02-19T11:31:59;7.90;;;3.50;;
5460;SDS011;2753;49.196;8.286;2023-02-19T11:35:20;3.30;;;3.00;;
5460;SDS011;2753;49.196;8.286;2023-02-19T11:37:52;7.10;;;3.60;;
5460;SDS011;2753;49.196;8.286;2023-02-19T11:40:33;4.60;;;3.60;;
5460;SDS011;2753;49.196;8.286;2023-02-19T11:48:52;8.73;;;4.07;;
5460;SDS011;2753;49.196;8.286;2023-02-19T11:57:03;6.03;;;3.77;;
5460;SDS011;2753;49.196;8.286;2023-02-19T12:10:25;6.87;;;2.90;;
5460;SDS011;2753;49.196;8.286;2023-02-19T12:24:38;4.77;;;2.70;;
5460;SDS011;2753;49.196;8.286;2023-02-19T12:38:08;12.63;;;3.20;;
5460;SDS011;2753;49.196;8.286;2023-02-19T12:40:51;9.03;;;2.40;;
5460;SDS011;2753;49.196;8.286;2023-02-19T12:43:22;8.90;;;3.07;;
5460;SDS011;2753;49.196;8.286;2023-02-19T12:50:52;7.23;;;2.67;;
5460;SDS011;2753;49.196;8.286;2023-02-19T12:56:28;6.93;;;2.30;;
5460;SDS011;2753;49.196;8.286;2023-02-19T13:02:03;6.50;;;3.50;;
5460;SDS011;2753;49.196;8.286;2023-02-19T13:04:47;4.87;;;3.57;;
5460;SDS011;2753;49.196;8.286;2023-02-19T13:07:24;5.37;;;2.60;;
5460;SDS011;2753;49.196;8.286;2023-02-19T13:10:11;10.30;;;2.87;;
5460;SDS011;2753;49.196;8.286;2023-02-19T13:12:49;4.53;;;2.23;;
5460;SDS011;2753;49.196;8.286;2023-02-19T13:16:03;8.50;;;3.50;;
5460;SDS011;2753;49.196;8.286;2023-02-19T13:18:06;7.10;;;2.77;;
5460;SDS011;2753;49.196;8.286;2023-02-19T13:20:41;10.40;;;3.67;;
5460;SDS011;2753;49.196;8.286;2023-02-19T13:29:10;8.67;;;2.87;;
5460;SDS011;2753;49.196;8.286;2023-02-19T13:31:50;5.43;;;2.70;;
5460;SDS011;2753;49.196;8.286;2023-02-19T13:37:12;5.50;;;2.97;;
5460;SDS011;2753;49.196;8.286;2023-02-19T13:39:48;9.83;;;3.47;;
5460;SDS011;2753;49.196;8.286;2023-02-19T13:42:26;7.10;;;3.07;;
5460;SDS011;2753;49.196;8.286;2023-02-19T13:45:03;7.13;;;1.70;;
5460;SDS011;2753;49.196;8.286;2023-02-19T13:50:26;4.33;;;2.10;;
5460;SDS011;2753;49.196;8.286;2023-02-19T13:53:00;9.53;;;1.80;;
5460;SDS011;2753;49.196;8.286;2023-02-19T13:55:47;6.83;;;3.00;;
5460;SDS011;2753;49.196;8.286;2023-02-19T13:58:37;3.07;;;1.97;;
5460;SDS011;2753;49.196;8.286;2023-02-19T14:01:17;7.93;;;1.90;;
5460;SDS011;2753;49.196;8.286;2023-02-19T14:03:47;5.17;;;2.30;;
5460;SDS011;2753;49.196;8.286;2023-02-19T14:06:19;11.30;;;3.13;;
5460;SDS011;2753;49.196;8.286;2023-02-19T14:16:51;2.53;;;1.83;;
5460;SDS011;2753;49.196;8.286;2023-02-19T14:27:51;5.50;;;2.80;;
5460;SDS011;2753;49.196;8.286;2023-02-19T14:30:18;7.03;;;3.10;;
5460;SDS011;2753;49.196;8.286;2023-02-19T14:32:46;7.83;;;3.33;;
5460;SDS011;2753;49.196;8.286;2023-02-19T14:35:20;10.00;;;3.30;;
5460;SDS011;2753;49.196;8.286;2023-02-19T14:37:49;4.20;;;2.13;;
5460;SDS011;2753;49.196;8.286;2023-02-19T14:40:36;3.30;;;2.80;;
5460;SDS011;2753;49.196;8.286;2023-02-19T14:43:05;15.60;;;2.73;;
5460;SDS011;2753;49.196;8.286;2023-02-19T14:45:46;7.27;;;2.50;;
5460;SDS011;2753;49.196;8.286;2023-02-19T14:48:37;10.77;;;2.70;;
5460;SDS011;2753;49.196;8.286;2023-02-19T14:51:09;7.03;;;2.30;;
5460;SDS011;2753;49.196;8.286;2023-02-19T14:53:57;6.07;;;2.73;;
5460;SDS011;2753;49.196;8.286;2023-02-19T14:56:29;7.70;;;2.67;;
5460;SDS011;2753;49.196;8.286;2023-02-19T14:59:04;8.40;;;2.10;;
5460;SDS011;2753;49.196;8.286;2023-02-19T15:01:30;9.87;;;3.00;;
5460;SDS011;2753;49.196;8.286;2023-02-19T15:03:56;5.70;;;2.57;;
5460;SDS011;2753;49.196;8.286;2023-02-19T15:06:22;4.57;;;2.33;;
5460;SDS011;2753;49.196;8.286;2023-02-19T15:08:52;9.43;;;4.20;;
5460;SDS011;2753;49.196;8.286;2023-02-19T15:11:23;11.10;;;2.50;;
5460;SDS011;2753;49.196;8.286;2023-02-19T15:13:54;10.80;;;2.53;;
5460;SDS011;2753;49.196;8.286;2023-02-19T15:16:22;9.30;;;2.93;;
5460;SDS011;2753;49.196;8.286;2023-02-19T15:18:50;11.13;;;3.53;;
5460;SDS011;2753;49.196;8.286;2023-02-19T15:23:49;10.63;;;4.00;;
5460;SDS011;2753;49.196;8.286;2023-02-19T15:26:19;8.73;;;4.33;;
5460;SDS011;2753;49.196;8.286;2023-02-19T15:28:55;14.33;;;4.97;;
5460;SDS011;2753;49.196;8.286;2023-02-19T15:31:48;5.80;;;4.00;;
5460;SDS011;2753;49.196;8.286;2023-02-19T15:34:19;9.70;;;3.43;;
5460;SDS011;2753;49.196;8.286;2023-02-19T15:36:50;6.07;;;2.50;;
5460;SDS011;2753;49.196;8.286;2023-02-19T15:39:30;3.70;;;2.00;;
5460;SDS011;2753;49.196;8.286;2023-02-19T15:42:01;9.70;;;2.13;;
5460;SDS011;2753;49.196;8.286;2023-02-19T15:44:30;4.00;;;2.50;;
5460;SDS011;2753;49.196;8.286;2023-02-19T15:47:04;3.17;;;2.20;;
5460;SDS011;2753;49.196;8.286;2023-02-19T15:49:48;5.07;;;2.13;;
5460;SDS011;2753;49.196;8.286;2023-02-19T15:52:33;9.10;;;2.43;;
5460;SDS011;2753;49.196;8.286;2023-02-19T15:55:23;13.37;;;3.03;;
5460;SDS011;2753;49.196;8.286;2023-02-19T16:01:36;6.13;;;3.10;;
5460;SDS011;2753;49.196;8.286;2023-02-19T16:03:46;7.67;;;3.00;;
5460;SDS011;2753;49.196;8.286;2023-02-19T16:06:13;8.70;;;3.77;;
5460;SDS011;2753;49.196;8.286;2023-02-19T16:08:42;10.80;;;4.63;;
5460;SDS011;2753;49.196;8.286;2023-02-19T16:11:28;10.13;;;3.00;;
5460;SDS011;2753;49.196;8.286;2023-02-19T16:16:49;9.83;;;4.20;;
5460;SDS011;2753;49.196;8.286;2023-02-19T16:19:19;13.73;;;3.57;;
5460;SDS011;2753;49.196;8.286;2023-02-19T16:21:47;7.50;;;3.30;;
5460;SDS011;2753;49.196;8.286;2023-02-19T16:24:16;9.80;;;3.47;;
5460;SDS011;2753;49.196;8.286;2023-02-19T16:26:56;8.90;;;3.20;;
5460;SDS011;2753;49.196;8.286;2023-02-19T16:29:24;10.57;;;3.20;;
5460;SDS011;2753;49.196;8.286;2023-02-19T16:31:57;8.40;;;3.20;;
5460;SDS011;2753;49.196;8.286;2023-02-19T16:34:41;12.27;;;2.83;;
5460;SDS011;2753;49.196;8.286;2023-02-19T16:45:13;31.17;;;5.80;;
5460;SDS011;2753;49.196;8.286;2023-02-19T16:47:39;17.03;;;5.20;;
5460;SDS011;2753;49.196;8.286;2023-02-19T16:50:11;15.90;;;4.50;;
5460;SDS011;2753;49.196;8.286;2023-02-19T16:52:53;10.20;;;4.47;;
5460;SDS011;2753;49.196;8.286;2023-02-19T16:55:23;9.93;;;4.30;;
5460;SDS011;2753;49.196;8.286;2023-02-19T16:57:49;12.80;;;3.80;;
5460;SDS011;2753;49.196;8.286;2023-02-19T17:00:19;8.43;;;4.00;;
5460;SDS011;2753;49.196;8.286;2023-02-19T17:02:47;15.27;;;3.60;;
5460;SDS011;2753;49.196;8.286;2023-02-19T17:05:15;12.00;;;4.20;;
5460;SDS011;2753;49.196;8.286;2023-02-19T17:07:41;13.37;;;5.50;;
5460;SDS011;2753;49.196;8.286;2023-02-19T17:10:34;8.13;;;4.90;;
5460;SDS011;2753;49.196;8.286;2023-02-19T17:13:00;13.33;;;4.57;;
5460;SDS011;2753;49.196;8.286;2023-02-19T17:15:25;8.43;;;4.00;;
5460;SDS011;2753;49.196;8.286;2023-02-19T17:17:51;7.43;;;3.90;;
5460;SDS011;2753;49.196;8.286;2023-02-19T17:20:19;12.30;;;4.70;;
5460;SDS011;2753;49.196;8.286;2023-02-19T17:22:51;8.20;;;4.23;;
5460;SDS011;2753;49.196;8.286;2023-02-19T17:25:18;13.97;;;5.90;;
5460;SDS011;2753;49.196;8.286;2023-02-19T17:27:44;11.43;;;5.67;;
5460;SDS011;2753;49.196;8.286;2023-02-19T17:30:10;12.10;;;5.17;;
5460;SDS011;2753;49.196;8.286;2023-02-19T17:32:41;10.50;;;3.10;;
5460;SDS011;2753;49.196;8.286;2023-02-19T17:35:07;8.97;;;4.97;;
5460;SDS011;2753;49.196;8.286;2023-02-19T17:37:33;17.30;;;5.20;;
5460;SDS011;2753;49.196;8.286;2023-02-19T17:39:58;9.40;;;5.20;;
5460;SDS011;2753;49.196;8.286;2023-02-19T17:42:24;18.57;;;6.47;;
5460;SDS011;2753;49.196;8.286;2023-02-19T17:44:50;13.07;;;6.23;;
5460;SDS011;2753;49.196;8.286;2023-02-19T17:47:17;6.37;;;5.20;;
5460;SDS011;2753;49.196;8.286;2023-02-19T17:49:43;9.23;;;3.20;;
5460;SDS011;2753;49.196;8.286;2023-02-19T17:52:09;8.57;;;3.40;;
5460;SDS011;2753;49.196;8.286;2023-02-19T17:54:36;6.30;;;3.70;;
5460;SDS011;2753;49.196;8.286;2023-02-19T17:57:01;5.47;;;3.40;;
5460;SDS011;2753;49.196;8.286;2023-02-19T17:59:27;8.67;;;2.90;;
5460;SDS011;2753;49.196;8.286;2023-02-19T18:01:53;6.60;;;3.30;;
5460;SDS011;2753;49.196;8.286;2023-02-19T18:04:19;7.13;;;3.50;;